Time;durP1;ratioP1;P1;durP2;ratioP2;P2;SDS_P1;SDS_P2;PMS_P1;PMS_P2;Temp;Humidity;BMP_temperature;BMP_pressure;BME280_temperature;BME280_humidity;BME280_pressure;Samples;Min_cycle;Max_cycle;Signal;HPM_P1;HPM_P2
2023/06/22 00:00:50;;;;;;;11.93;10.60;;;23.20;99.90;;;;;;5002007;28;20202;-70
2023/06/22 00:03:17;;;;;;;12.45;10.70;;;23.20;99.90;;;;;;5010246;28;20216;-71
2023/06/22 00:05:43;;;;;;;16.67;13.20;;;23.20;99.90;;;;;;5013252;28;20176;-71
2023/06/22 00:08:09;;;;;;;21.00;17.30;;;23.20;99.90;;;;;;5013034;28;20507;-72
2023/06/22 00:10:35;;;;;;;26.10;18.75;;;23.20;99.90;;;;;;4995888;28;20219;-71
2023/06/22 00:13:00;;;;;;;12.93;11.50;;;23.10;99.90;;;;;;5002243;28;20201;-71
2023/06/22 00:15:26;;;;;;;18.02;15.10;;;23.10;99.90;;;;;;4993051;28;20204;-71
2023/06/22 00:17:52;;;;;;;26.45;21.52;;;23.20;99.90;;;;;;5002951;28;20221;-71
2023/06/22 00:20:18;;;;;;;19.75;15.60;;;23.10;99.90;;;;;;4991869;28;20169;-71
2023/06/22 00:22:44;;;;;;;16.20;12.77;;;23.10;99.90;;;;;;5007798;28;20754;-70
2023/06/22 00:25:10;;;;;;;11.52;10.00;;;23.00;99.90;;;;;;5007224;28;20216;-71
2023/06/22 00:27:36;;;;;;;15.40;10.45;;;23.10;99.90;;;;;;5005669;28;20292;-72
2023/06/22 00:30:03;;;;;;;11.57;10.38;;;23.10;99.90;;;;;;5008433;28;20211;-70
2023/06/22 00:32:29;;;;;;;11.45;10.32;;;23.00;99.90;;;;;;5009430;28;20183;-71
2023/06/22 00:34:54;;;;;;;10.43;9.32;;;23.00;99.90;;;;;;5007085;28;20284;-70
2023/06/22 00:37:25;;;;;;;13.80;12.10;;;22.90;99.90;;;;;;5007291;28;20262;-70
2023/06/22 00:39:51;;;;;;;13.88;12.45;;;22.90;99.90;;;;;;5003321;28;20201;-71
2023/06/22 00:42:17;;;;;;;12.20;9.85;;;22.90;99.90;;;;;;5009628;28;20227;-70
2023/06/22 00:44:44;;;;;;;11.23;10.02;;;22.90;99.90;;;;;;5012840;28;20189;-72
2023/06/22 00:47:13;;;;;;;13.48;10.45;;;22.80;99.90;;;;;;5009760;28;20253;-70
2023/06/22 00:49:39;;;;;;;10.77;8.70;;;22.80;99.90;;;;;;5006351;28;20231;-70
2023/06/22 00:52:08;;;;;;;11.02;9.48;;;22.80;99.90;;;;;;5007166;28;20205;-70
2023/06/22 00:54:36;;;;;;;14.60;12.45;;;22.70;99.90;;;;;;5012458;28;20757;-70
2023/06/22 00:57:02;;;;;;;16.45;12.60;;;22.70;99.90;;;;;;5011608;28;20210;-72
2023/06/22 00:59:28;;;;;;;12.65;11.30;;;22.70;99.90;;;;;;5010490;28;20745;-71
2023/06/22 01:01:54;;;;;;;13.05;10.30;;;22.70;99.90;;;;;;4991966;28;20750;-71
2023/06/22 01:04:21;;;;;;;13.27;10.77;;;22.70;99.90;;;;;;4990318;28;20224;-71
2023/06/22 01:07:17;;;;;;;11.05;9.32;;;22.60;99.90;;;;;;4992999;28;20205;-68
2023/06/22 01:10:02;;;;;;;10.85;9.75;;;22.60;99.90;;;;;;4952845;28;20212;-70
2023/06/22 01:12:32;;;;;;;11.30;10.18;;;22.60;99.90;;;;;;5007107;28;20250;-71
2023/06/22 01:15:07;;;;;;;18.73;14.60;;;22.50;99.90;;;;;;5001980;28;20202;-70
2023/06/22 01:17:35;;;;;;;11.63;10.45;;;22.50;99.90;;;;;;5003459;28;20177;-71
2023/06/22 01:20:04;;;;;;;13.40;11.32;;;22.40;99.90;;;;;;5007248;28;20169;-70
2023/06/22 01:22:33;;;;;;;11.13;9.98;;;22.40;99.90;;;;;;5006970;28;20676;-70
2023/06/22 01:25:13;;;;;;;12.18;10.98;;;22.30;99.90;;;;;;5003854;28;20217;-70
2023/06/22 01:27:45;;;;;;;11.80;10.23;;;22.20;99.90;;;;;;4994471;28;20233;-72
2023/06/22 01:30:12;;;;;;;11.80;10.48;;;22.20;99.90;;;;;;4980919;28;20595;-71
2023/06/22 01:32:40;;;;;;;11.73;10.52;;;22.10;99.90;;;;;;5007700;28;20188;-71
2023/06/22 01:35:08;;;;;;;11.85;10.63;;;22.10;99.90;;;;;;5005001;28;20193;-71
2023/06/22 01:37:35;;;;;;;14.30;11.45;;;22.00;99.90;;;;;;5011185;28;20212;-70
2023/06/22 01:40:04;;;;;;;11.77;10.57;;;22.00;99.90;;;;;;5007833;28;20205;-70
2023/06/22 01:42:31;;;;;;;12.63;10.52;;;21.90;99.90;;;;;;5011994;28;20832;-69
2023/06/22 01:44:58;;;;;;;11.98;10.68;;;21.90;99.90;;;;;;5007813;28;20675;-70
2023/06/22 01:47:24;;;;;;;12.88;11.07;;;21.90;99.90;;;;;;5010879;28;20185;-69
2023/06/22 01:49:51;;;;;;;12.63;10.98;;;21.80;99.90;;;;;;5007239;28;20299;-69
2023/06/22 01:52:17;;;;;;;13.88;11.90;;;21.70;99.90;;;;;;4988990;28;20212;-70
2023/06/22 01:54:43;;;;;;;13.48;11.32;;;21.70;99.90;;;;;;5003047;28;20267;-69
2023/06/22 01:57:10;;;;;;;12.38;11.07;;;21.70;99.90;;;;;;4987662;28;20210;-70
2023/06/22 01:59:47;;;;;;;13.70;11.13;;;21.70;99.90;;;;;;4992422;28;20178;-70
2023/06/22 02:02:18;;;;;;;13.23;11.93;;;21.70;99.90;;;;;;4994726;28;20195;-71
2023/06/22 02:04:46;;;;;;;12.73;11.32;;;21.70;99.90;;;;;;5004089;28;20212;-70
2023/06/22 02:07:16;;;;;;;14.15;12.40;;;21.70;99.90;;;;;;5000242;28;20221;-70
2023/06/22 02:09:45;;;;;;;16.15;12.65;;;21.70;99.90;;;;;;5004646;28;20205;-70
2023/06/22 02:12:18;;;;;;;16.17;12.63;;;21.70;99.90;;;;;;5003336;28;20225;-70
2023/06/22 02:14:46;;;;;;;15.45;13.20;;;21.70;99.90;;;;;;5003256;28;20220;-70
2023/06/22 02:17:12;;;;;;;13.48;12.18;;;21.70;99.90;;;;;;5001407;28;20269;-70
2023/06/22 02:19:40;;;;;;;17.58;13.57;;;21.70;99.90;;;;;;4992489;28;20212;-71
2023/06/22 02:22:06;;;;;;;15.05;13.45;;;21.70;99.90;;;;;;5001672;28;20212;-71
2023/06/22 02:24:33;;;;;;;19.92;14.32;;;21.60;99.90;;;;;;5003382;28;20214;-71
2023/06/22 02:26:59;;;;;;;17.90;14.75;;;21.60;99.90;;;;;;4999365;28;20688;-70
2023/06/22 02:29:26;;;;;;;17.45;14.90;;;21.70;99.90;;;;;;5008321;28;20248;-70
2023/06/22 02:31:53;;;;;;;17.40;14.38;;;21.70;99.90;;;;;;5010195;28;20688;-70
2023/06/22 02:34:18;;;;;;;16.52;14.80;;;21.60;99.90;;;;;;4993787;28;20209;-70
2023/06/22 02:36:51;;;;;;;19.55;15.70;;;21.70;99.90;;;;;;5004968;28;20774;-70
2023/06/22 02:39:22;;;;;;;17.23;14.93;;;21.70;99.90;;;;;;5002645;28;20760;-71
2023/06/22 02:41:49;;;;;;;17.05;14.75;;;21.70;99.90;;;;;;5003527;28;20543;-67
2023/06/22 02:44:15;;;;;;;18.52;15.55;;;21.70;99.90;;;;;;5007775;28;20223;-70
2023/06/22 02:46:41;;;;;;;20.30;14.57;;;21.70;99.90;;;;;;5003320;28;20201;-70
2023/06/22 02:49:06;;;;;;;17.67;15.55;;;21.60;99.90;;;;;;5006427;28;20256;-70
2023/06/22 02:51:34;;;;;;;18.55;15.25;;;21.60;99.90;;;;;;4999134;28;20212;-71
2023/06/22 02:54:00;;;;;;;19.27;14.70;;;21.60;99.90;;;;;;4990012;28;20633;-71
2023/06/22 02:56:26;;;;;;;17.77;15.85;;;21.60;99.90;;;;;;5009511;28;20173;-70
2023/06/22 02:58:52;;;;;;;17.70;15.02;;;21.60;99.90;;;;;;4991934;28;20201;-69
2023/06/22 03:01:24;;;;;;;16.95;14.70;;;21.60;99.90;;;;;;4993140;28;20212;-70
2023/06/22 03:03:49;;;;;;;16.30;14.43;;;21.70;99.90;;;;;;5005073;28;20219;-70
2023/06/22 03:06:15;;;;;;;18.83;15.68;;;21.70;99.90;;;;;;4990614;28;20571;-70
2023/06/22 03:08:41;;;;;;;17.52;14.98;;;21.80;99.90;;;;;;4992292;28;20516;-71
2023/06/22 03:11:07;;;;;;;16.33;14.52;;;21.90;99.90;;;;;;5007973;28;20184;-71
2023/06/22 03:13:33;;;;;;;16.38;14.57;;;21.90;99.90;;;;;;5003847;28;20209;-70
2023/06/22 03:15:59;;;;;;;18.10;15.88;;;22.00;99.90;;;;;;5005789;28;20247;-71
2023/06/22 03:18:24;;;;;;;18.27;15.07;;;22.10;99.90;;;;;;5004121;28;20216;-71
2023/06/22 03:20:50;;;;;;;17.80;15.85;;;22.10;99.90;;;;;;5000013;28;20174;-70
2023/06/22 03:23:16;;;;;;;17.60;14.30;;;22.10;99.90;;;;;;4989114;28;20344;-70
2023/06/22 03:25:44;;;;;;;16.88;15.02;;;22.20;99.90;;;;;;5003186;28;20216;-70
2023/06/22 03:28:10;;;;;;;15.90;14.02;;;22.40;99.90;;;;;;5009524;28;20201;-70
2023/06/22 03:30:36;;;;;;;17.05;13.68;;;22.70;99.90;;;;;;5010037;28;20208;-70
2023/06/22 03:33:01;;;;;;;16.63;13.40;;;22.50;99.90;;;;;;4990436;28;20201;-70
2023/06/22 03:35:27;;;;;;;14.93;12.57;;;22.50;99.90;;;;;;5009250;28;20181;-71
2023/06/22 03:37:53;;;;;;;13.95;12.50;;;22.70;99.90;;;;;;5006970;28;20288;-68
2023/06/22 03:40:19;;;;;;;12.93;11.57;;;22.90;99.90;;;;;;4988582;28;20287;-70
2023/06/22 03:42:45;;;;;;;12.13;10.93;;;23.20;99.90;;;;;;4986110;28;20263;-71
2023/06/22 03:45:11;;;;;;;11.93;10.40;;;23.50;99.90;;;;;;4990723;28;20201;-71
2023/06/22 03:47:37;;;;;;;12.25;10.93;;;23.60;99.90;;;;;;5005645;28;20180;-70
2023/06/22 03:50:03;;;;;;;12.98;10.52;;;23.80;99.90;;;;;;5007051;28;20176;-70
2023/06/22 03:52:30;;;;;;;12.30;9.13;;;23.80;99.90;;;;;;5008418;28;20211;-71
2023/06/22 03:54:56;;;;;;;10.73;9.02;;;24.00;99.90;;;;;;5003262;28;20220;-70
2023/06/22 03:57:21;;;;;;;12.40;9.77;;;24.30;99.90;;;;;;4999782;28;20457;-70
2023/06/22 03:59:47;;;;;;;11.02;8.65;;;24.40;99.90;;;;;;5004032;28;20408;-71
2023/06/22 04:02:13;;;;;;;11.80;8.25;;;24.60;99.90;;;;;;5003353;28;20640;-70
2023/06/22 04:04:39;;;;;;;8.85;7.82;;;25.00;99.90;;;;;;5000072;28;20209;-70
2023/06/22 04:07:05;;;;;;;10.27;8.32;;;25.20;99.90;;;;;;5005025;28;20577;-70
2023/06/22 04:09:30;;;;;;;9.68;8.68;;;25.40;99.90;;;;;;4990627;28;20564;-71
2023/06/22 04:11:56;;;;;;;10.20;8.40;;;26.30;99.90;;;;;;5006515;28;20201;-70
2023/06/22 04:14:22;;;;;;;9.70;8.70;;;26.60;99.90;;;;;;5009667;28;20217;-71
2023/06/22 04:16:48;;;;;;;10.27;8.52;;;27.20;99.90;;;;;;5007712;28;20207;-70
2023/06/22 04:19:15;;;;;;;8.23;7.25;;;27.60;99.90;;;;;;5005041;28;20247;-71
2023/06/22 04:21:42;;;;;;;7.97;6.85;;;28.10;99.90;;;;;;5007376;28;20615;-71
2023/06/22 04:24:07;;;;;;;10.23;6.97;;;28.00;99.90;;;;;;5005606;28;20308;-70
2023/06/22 04:26:36;;;;;;;8.60;6.72;;;28.10;99.90;;;;;;5008062;28;20276;-71
2023/06/22 04:29:05;;;;;;;8.57;7.63;;;28.10;99.90;;;;;;5004657;28;20197;-72
2023/06/22 04:31:31;;;;;;;9.63;8.02;;;28.10;99.90;;;;;;5005962;28;20701;-71
2023/06/22 04:34:05;;;;;;;7.80;6.90;;;28.70;99.90;;;;;;4991594;28;20716;-71
2023/06/22 04:36:37;;;;;;;9.15;6.97;;;29.10;99.90;;;;;;4983134;28;20218;-70
2023/06/22 04:39:10;;;;;;;9.30;6.93;;;29.60;99.90;;;;;;4987872;28;20205;-71
2023/06/22 04:41:43;;;;;;;8.07;5.93;;;29.90;99.90;;;;;;5001681;28;20188;-72
2023/06/22 04:44:23;;;;;;;7.00;6.35;;;30.30;99.90;;;;;;5005979;28;20303;-71
2023/06/22 04:46:57;;;;;;;9.02;8.13;;;30.30;99.90;;;;;;5002190;28;20208;-69
2023/06/22 04:49:32;;;;;;;8.13;5.78;;;30.30;99.90;;;;;;5007701;28;20251;-71
2023/06/22 04:51:58;;;;;;;7.38;6.07;;;31.10;99.90;;;;;;4995176;28;20711;-72
2023/06/22 04:54:24;;;;;;;6.30;5.70;;;30.40;99.90;;;;;;5012043;28;20304;-71
2023/06/22 04:56:56;;;;;;;6.45;4.85;;;31.40;99.90;;;;;;5009682;28;20623;-69
2023/06/22 04:59:22;;;;;;;6.85;5.68;;;31.10;99.90;;;;;;4992220;28;20165;-71
2023/06/22 05:01:48;;;;;;;6.63;5.22;;;30.80;99.90;;;;;;5010978;28;20243;-71
2023/06/22 05:04:14;;;;;;;7.63;5.95;;;30.40;99.90;;;;;;5007201;28;20250;-70
2023/06/22 05:06:39;;;;;;;7.43;6.20;;;29.70;99.90;;;;;;5010890;28;20205;-70
2023/06/22 05:09:05;;;;;;;9.00;5.93;;;28.20;99.90;;;;;;5007254;28;20346;-70
2023/06/22 05:11:31;;;;;;;8.55;7.55;;;27.50;99.90;;;;;;5009535;28;20184;-71
2023/06/22 05:13:56;;;;;;;6.50;4.60;;;26.90;99.90;;;;;;5008469;28;20213;-70
2023/06/22 05:16:26;;;;;;;6.75;5.63;;;26.30;99.90;;;;;;5007566;28;20254;-70
2023/06/22 05:18:54;;;;;;;5.82;4.53;;;26.10;99.90;;;;;;5004062;28;20206;-70
2023/06/22 05:21:25;;;;;;;5.30;4.25;;;25.70;99.90;;;;;;5006674;28;20232;-70
2023/06/22 05:23:51;;;;;;;5.18;4.38;;;25.30;99.90;;;;;;5000818;28;20574;-70
2023/06/22 05:26:19;;;;;;;6.20;4.65;;;25.10;99.90;;;;;;4984975;28;20177;-70
2023/06/22 05:28:45;;;;;;;9.45;4.85;;;24.70;99.90;;;;;;4995391;28;20211;-70
2023/06/22 05:31:13;;;;;;;6.45;3.83;;;24.60;99.90;;;;;;5012359;28;20201;-71
2023/06/22 05:33:39;;;;;;;5.35;4.18;;;24.30;99.90;;;;;;4991136;28;20297;-70
2023/06/22 05:36:05;;;;;;;7.13;4.60;;;24.40;99.90;;;;;;5010878;28;20289;-71
2023/06/22 05:38:30;;;;;;;7.32;4.45;;;24.60;99.90;;;;;;5012423;28;20177;-71
2023/06/22 05:40:56;;;;;;;9.75;4.82;;;24.90;99.90;;;;;;5010419;28;20389;-70
2023/06/22 05:43:22;;;;;;;7.07;4.47;;;25.70;99.90;;;;;;4991874;28;20743;-70
2023/06/22 05:45:47;;;;;;;7.63;3.88;;;26.30;99.90;;;;;;5007528;28;20212;-70
2023/06/22 05:48:13;;;;;;;7.10;3.92;;;27.60;99.90;;;;;;5008386;28;20200;-71
2023/06/22 05:50:39;;;;;;;5.85;3.80;;;28.10;99.90;;;;;;5007380;28;20189;-72
2023/06/22 05:53:06;;;;;;;5.60;4.30;;;28.00;99.90;;;;;;5008454;28;20174;-70
2023/06/22 05:55:32;;;;;;;8.52;5.90;;;27.60;99.90;;;;;;5006917;28;20201;-70
2023/06/22 05:57:58;;;;;;;4.93;3.90;;;27.20;99.90;;;;;;5004147;28;20717;-71
2023/06/22 06:00:23;;;;;;;8.13;4.35;;;26.70;99.90;;;;;;5008687;28;20663;-72
2023/06/22 06:02:49;;;;;;;6.82;4.78;;;26.50;99.90;;;;;;5000984;28;20229;-70
2023/06/22 06:05:15;;;;;;;6.50;5.65;;;26.70;99.90;;;;;;5008590;28;20174;-70
2023/06/22 06:07:42;;;;;;;9.48;5.35;;;26.90;99.90;;;;;;5001945;28;20214;-70
2023/06/22 06:10:08;;;;;;;7.28;5.38;;;27.30;99.90;;;;;;5003357;28;20302;-72
2023/06/22 06:12:34;;;;;;;5.32;4.65;;;26.90;99.90;;;;;;5011708;28;20205;-70
2023/06/22 06:15:00;;;;;;;5.63;4.22;;;27.20;99.90;;;;;;5010020;28;20213;-70
2023/06/22 06:17:25;;;;;;;5.93;5.05;;;27.90;99.90;;;;;;5011803;28;20330;-70
2023/06/22 06:19:51;;;;;;;5.38;3.92;;;28.40;99.90;;;;;;5008809;28;20570;-71
2023/06/22 06:22:18;;;;;;;4.40;4.00;;;29.10;99.90;;;;;;5009521;28;20212;-70
2023/06/22 06:24:44;;;;;;;4.88;3.85;;;29.90;99.90;;;;;;5007852;28;20296;-70
2023/06/22 06:27:10;;;;;;;5.82;3.70;;;30.70;99.90;;;;;;5009157;28;20295;-71
2023/06/22 06:29:35;;;;;;;6.05;4.18;;;31.10;99.90;;;;;;5009772;28;20526;-71
2023/06/22 06:32:01;;;;;;;5.50;3.53;;;31.20;99.90;;;;;;4992683;28;20170;-70
2023/06/22 06:34:26;;;;;;;5.60;4.05;;;31.80;99.90;;;;;;4989254;28;20212;-71
2023/06/22 06:36:52;;;;;;;5.15;3.80;;;31.70;99.90;;;;;;5003703;28;20225;-71
2023/06/22 06:39:17;;;;;;;4.47;3.42;;;33.00;99.90;;;;;;5008612;28;20220;-71
2023/06/22 06:41:43;;;;;;;3.67;3.10;;;33.20;99.90;;;;;;4994036;28;20211;-70
2023/06/22 06:44:09;;;;;;;6.60;3.67;;;33.00;99.90;;;;;;5004782;28;20212;-70
2023/06/22 06:46:34;;;;;;;4.45;3.80;;;31.10;99.90;;;;;;5006273;28;20213;-70
2023/06/22 06:49:00;;;;;;;7.75;4.05;;;30.60;99.90;;;;;;5001761;28;20559;-71
2023/06/22 06:51:25;;;;;;;5.18;3.47;;;31.00;99.90;;;;;;5003423;28;20208;-69
2023/06/22 06:53:51;;;;;;;3.95;3.33;;;31.40;99.90;;;;;;5010090;28;20224;-69
2023/06/22 06:56:17;;;;;;;4.57;3.58;;;31.90;99.90;;;;;;5010838;28;20220;-70
2023/06/22 06:58:44;;;;;;;5.05;3.33;;;31.70;99.90;;;;;;5008634;28;20217;-71
2023/06/22 07:01:13;;;;;;;6.40;3.70;;;32.00;99.90;;;;;;5008312;28;20304;-71
2023/06/22 07:03:39;;;;;;;4.00;3.15;;;32.40;99.90;;;;;;5009462;28;20278;-71
2023/06/22 07:06:04;;;;;;;4.63;3.33;;;32.70;99.90;;;;;;5006665;28;20608;-71
2023/06/22 07:08:30;;;;;;;6.32;3.60;;;33.40;99.90;;;;;;5007806;28;20181;-71
2023/06/22 07:10:56;;;;;;;4.72;3.33;;;34.60;99.90;;;;;;5005735;28;20617;-70
2023/06/22 07:13:21;;;;;;;3.47;3.17;;;34.60;98.00;;;;;;5008279;28;20252;-71
2023/06/22 07:15:47;;;;;;;3.72;3.42;;;35.10;96.90;;;;;;4991928;28;20201;-72
2023/06/22 07:18:13;;;;;;;6.80;3.78;;;33.60;97.10;;;;;;5005640;28;20208;-70
2023/06/22 07:20:39;;;;;;;7.55;5.05;;;32.00;99.30;;;;;;5006651;28;20208;-71
2023/06/22 07:23:05;;;;;;;5.75;4.03;;;31.50;99.90;;;;;;5006050;28;20193;-70
2023/06/22 07:25:30;;;;;;;4.80;3.47;;;31.30;99.90;;;;;;5003261;28;20556;-71
2023/06/22 07:28:04;;;;;;;8.45;3.30;;;31.30;99.90;;;;;;5000921;28;20204;-70
2023/06/22 07:30:31;;;;;;;5.15;3.63;;;31.80;99.90;;;;;;4991177;28;20570;-71
2023/06/22 07:32:58;;;;;;;5.40;4.50;;;31.90;98.90;;;;;;5009954;28;20790;-69
2023/06/22 07:35:24;;;;;;;4.78;3.63;;;30.80;99.50;;;;;;5010653;28;20259;-70
2023/06/22 07:37:50;;;;;;;3.95;3.53;;;30.70;99.90;;;;;;5008879;28;20316;-70
2023/06/22 07:40:15;;;;;;;3.63;2.90;;;30.80;99.90;;;;;;5006510;28;20684;-70
2023/06/22 07:42:41;;;;;;;4.43;3.00;;;31.40;99.00;;;;;;5008374;28;20747;-70
2023/06/22 07:45:08;;;;;;;3.72;2.75;;;31.80;98.70;;;;;;4988801;28;20217;-71
2023/06/22 07:47:35;;;;;;;7.15;2.95;;;31.00;98.60;;;;;;5007627;28;20179;-71
2023/06/22 07:50:01;;;;;;;3.47;2.80;;;30.50;99.60;;;;;;5005635;28;20175;-71
2023/06/22 07:52:28;;;;;;;5.32;3.28;;;30.60;99.80;;;;;;5008053;28;20205;-70
2023/06/22 07:54:54;;;;;;;4.32;3.13;;;30.20;99.60;;;;;;5003514;28;20218;-69
2023/06/22 07:57:20;;;;;;;8.10;4.70;;;30.00;99.60;;;;;;5005554;28;20228;-70
2023/06/22 07:59:46;;;;;;;5.18;3.38;;;29.90;99.30;;;;;;5003035;28;20185;-70
2023/06/22 08:02:12;;;;;;;4.50;3.45;;;30.10;99.70;;;;;;5007201;28;20169;-71
2023/06/22 08:04:38;;;;;;;3.30;3.00;;;29.50;99.70;;;;;;5002121;28;20311;-72
2023/06/22 08:07:04;;;;;;;4.72;2.83;;;29.40;99.90;;;;;;5001823;28;20296;-72
2023/06/22 08:09:32;;;;;;;4.35;2.88;;;29.50;99.50;;;;;;5002720;28;20212;-72
2023/06/22 08:11:58;;;;;;;3.13;2.78;;;29.90;99.50;;;;;;5000028;28;20221;-71
2023/06/22 08:14:27;;;;;;;4.45;2.60;;;30.30;99.00;;;;;;5006349;28;20192;-71
2023/06/22 08:16:53;;;;;;;4.60;3.13;;;29.60;99.40;;;;;;5009074;28;20197;-70
2023/06/22 08:19:18;;;;;;;5.68;2.70;;;30.00;99.00;;;;;;4992328;28;20212;-70
2023/06/22 08:21:44;;;;;;;4.00;3.10;;;30.20;98.70;;;;;;5008907;28;20298;-70
2023/06/22 08:24:10;;;;;;;5.88;3.33;;;30.00;97.90;;;;;;4991021;28;20224;-71
2023/06/22 08:26:37;;;;;;;5.32;3.38;;;29.30;98.80;;;;;;5012841;28;20177;-71
2023/06/22 08:29:03;;;;;;;4.45;3.05;;;28.90;99.40;;;;;;5008683;28;20549;-70
2023/06/22 08:31:30;;;;;;;4.03;3.28;;;28.50;99.90;;;;;;5010734;28;20201;-71
2023/06/22 08:33:56;;;;;;;4.75;2.65;;;27.90;99.90;;;;;;4995211;28;20229;-71
2023/06/22 08:36:22;;;;;;;7.57;3.15;;;27.80;99.90;;;;;;5009508;28;20216;-71
2023/06/22 08:38:51;;;;;;;7.10;2.85;;;27.90;99.90;;;;;;4995268;28;20184;-71
2023/06/22 08:41:17;;;;;;;2.80;2.50;;;28.00;99.90;;;;;;4987810;28;20221;-71
2023/06/22 08:43:44;;;;;;;3.15;2.65;;;27.80;99.90;;;;;;4992946;28;20636;-71
2023/06/22 08:46:13;;;;;;;3.20;2.65;;;27.70;99.90;;;;;;5007151;28;20691;-71
2023/06/22 08:48:38;;;;;;;7.65;3.05;;;27.90;99.90;;;;;;5007249;28;20215;-70
2023/06/22 08:51:04;;;;;;;4.15;3.35;;;28.30;99.90;;;;;;4987693;28;20201;-71
2023/06/22 08:53:30;;;;;;;5.55;3.50;;;28.30;99.90;;;;;;5005982;28;20697;-70
2023/06/22 08:55:56;;;;;;;5.25;4.32;;;27.90;99.90;;;;;;5012895;28;20208;-70
2023/06/22 08:58:21;;;;;;;4.68;3.40;;;28.00;99.90;;;;;;5012779;28;20288;-71
2023/06/22 09:00:48;;;;;;;4.68;2.95;;;28.00;99.90;;;;;;5012024;28;20213;-71
2023/06/22 09:03:14;;;;;;;6.53;3.65;;;28.40;99.90;;;;;;5010763;28;20224;-71
2023/06/22 09:05:40;;;;;;;6.63;5.07;;;28.20;99.90;;;;;;5008675;28;20259;-71
2023/06/22 09:08:06;;;;;;;5.75;2.85;;;28.90;99.90;;;;;;5009775;28;20253;-71
2023/06/22 09:10:31;;;;;;;3.42;3.13;;;29.20;99.90;;;;;;5011053;28;20204;-72
2023/06/22 09:12:57;;;;;;;7.30;3.95;;;29.90;99.90;;;;;;5007298;28;20259;-71
2023/06/22 09:15:23;;;;;;;4.82;3.80;;;29.70;99.90;;;;;;5009186;28;20259;-71
2023/06/22 09:17:49;;;;;;;5.22;3.70;;;29.60;99.90;;;;;;5005333;28;20169;-71
2023/06/22 09:20:15;;;;;;;5.82;3.38;;;29.20;99.90;;;;;;5010886;28;20177;-71
2023/06/22 09:22:41;;;;;;;6.13;4.00;;;29.10;99.90;;;;;;5006174;28;20302;-71
2023/06/22 09:25:07;;;;;;;4.40;3.55;;;29.20;99.90;;;;;;5003814;28;20241;-70
2023/06/22 09:27:33;;;;;;;3.85;3.45;;;29.40;99.90;;;;;;5009035;28;20259;-71
2023/06/22 09:29:58;;;;;;;5.50;4.70;;;29.30;99.90;;;;;;5006393;28;20201;-71
2023/06/22 09:32:25;;;;;;;6.35;4.50;;;29.50;99.90;;;;;;5009348;28;20169;-69
2023/06/22 09:34:51;;;;;;;4.55;4.10;;;29.00;99.90;;;;;;4983685;28;20571;-70
2023/06/22 09:37:17;;;;;;;6.18;3.83;;;29.00;99.90;;;;;;5008711;28;20263;-72
2023/06/22 09:39:42;;;;;;;5.53;4.45;;;28.90;99.90;;;;;;5012273;28;20623;-70
2023/06/22 09:42:08;;;;;;;2.80;2.55;;;28.80;99.90;;;;;;5011092;28;20297;-70
2023/06/22 09:44:34;;;;;;;2.78;2.50;;;29.10;99.90;;;;;;4993450;28;20205;-71
2023/06/22 09:47:00;;;;;;;4.63;2.70;;;29.20;99.10;;;;;;5010607;28;20177;-71
2023/06/22 09:49:25;;;;;;;8.10;5.47;;;29.10;98.90;;;;;;5009893;28;20197;-71
2023/06/22 09:51:52;;;;;;;5.45;3.10;;;29.10;99.80;;;;;;4995177;28;20212;-70
2023/06/22 09:54:18;;;;;;;6.68;3.55;;;29.30;99.90;;;;;;4991031;28;20299;-71
2023/06/22 09:56:43;;;;;;;3.45;2.75;;;29.60;99.90;;;;;;5007637;28;20256;-71
2023/06/22 09:59:09;;;;;;;4.25;3.05;;;29.80;99.70;;;;;;5008139;28;20592;-71
2023/06/22 10:01:35;;;;;;;5.72;3.50;;;29.80;99.90;;;;;;5006731;28;20197;-71
2023/06/22 10:04:02;;;;;;;5.00;3.65;;;30.00;99.90;;;;;;5003946;28;20220;-71
2023/06/22 10:06:27;;;;;;;4.40;3.28;;;29.80;99.90;;;;;;5006398;28;20243;-71
2023/06/22 10:08:53;;;;;;;4.88;4.15;;;29.80;99.90;;;;;;5003152;28;20240;-69
2023/06/22 10:11:19;;;;;;;4.93;3.67;;;29.40;99.90;;;;;;4988135;28;20177;-71
2023/06/22 10:13:44;;;;;;;6.82;3.42;;;29.90;99.90;;;;;;5001752;28;20208;-73
2023/06/22 10:16:10;;;;;;;4.80;3.45;;;30.20;99.90;;;;;;5005616;28;20280;-70
2023/06/22 10:18:36;;;;;;;3.20;2.90;;;30.20;99.90;;;;;;5011585;28;20197;-70
2023/06/22 10:21:02;;;;;;;4.32;3.80;;;30.30;99.90;;;;;;5010422;28;20244;-71
2023/06/22 10:23:28;;;;;;;8.30;4.28;;;29.90;99.90;;;;;;5010631;28;20671;-71
2023/06/22 10:25:53;;;;;;;5.57;4.13;;;29.50;99.90;;;;;;5008510;28;20270;-71
2023/06/22 10:28:19;;;;;;;4.50;4.10;;;29.40;99.90;;;;;;4993205;28;20251;-70
2023/06/22 10:30:45;;;;;;;5.88;3.63;;;29.40;99.90;;;;;;5008400;28;20694;-71
2023/06/22 10:33:11;;;;;;;4.47;4.05;;;29.90;99.90;;;;;;5006825;28;20217;-71
2023/06/22 10:35:37;;;;;;;5.10;3.58;;;30.60;99.90;;;;;;4989303;28;20173;-71
2023/06/22 10:38:04;;;;;;;5.28;3.92;;;30.80;99.90;;;;;;5005139;28;20602;-70
2023/06/22 10:40:29;;;;;;;5.15;4.25;;;30.30;99.90;;;;;;5007559;28;20201;-71
2023/06/22 10:42:55;;;;;;;4.82;4.32;;;30.30;99.90;;;;;;5002505;28;20268;-69
2023/06/22 10:45:21;;;;;;;5.93;4.35;;;31.10;99.90;;;;;;5005427;28;20287;-71
2023/06/22 10:47:46;;;;;;;4.75;3.75;;;30.60;99.90;;;;;;5008617;28;20268;-72
2023/06/22 10:50:12;;;;;;;6.43;3.70;;;30.10;99.90;;;;;;5005578;28;20166;-71
2023/06/22 10:52:38;;;;;;;5.45;3.33;;;29.80;99.90;;;;;;4988433;28;20193;-70
2023/06/22 10:55:04;;;;;;;4.15;3.75;;;29.70;99.90;;;;;;5008861;28;20696;-71
2023/06/22 10:57:30;;;;;;;7.63;3.90;;;29.80;99.90;;;;;;5011489;28;20208;-71
2023/06/22 10:59:55;;;;;;;5.68;4.20;;;29.80;99.90;;;;;;5009111;28;20200;-71
2023/06/22 11:02:21;;;;;;;5.38;4.80;;;29.30;99.90;;;;;;5010290;28;20681;-71
2023/06/22 11:04:47;;;;;;;6.03;4.38;;;29.30;99.90;;;;;;5008841;28;20295;-70
2023/06/22 11:07:13;;;;;;;5.38;4.30;;;29.30;99.90;;;;;;5008516;28;20525;-71
2023/06/22 11:09:39;;;;;;;5.82;4.25;;;29.20;99.90;;;;;;5009369;28;20207;-71
2023/06/22 11:12:06;;;;;;;6.05;4.35;;;29.20;99.90;;;;;;5005205;28;20206;-71
2023/06/22 11:14:33;;;;;;;6.28;4.45;;;29.30;99.90;;;;;;4990668;28;20338;-70
2023/06/22 11:16:59;;;;;;;4.43;4.00;;;29.60;99.90;;;;;;4986627;28;20189;-71
2023/06/22 11:19:25;;;;;;;4.32;3.88;;;29.70;99.90;;;;;;5005193;28;20211;-71
2023/06/22 11:21:50;;;;;;;4.75;4.35;;;29.80;99.90;;;;;;5003140;28;20227;-70
2023/06/22 11:24:17;;;;;;;4.63;4.22;;;30.00;99.90;;;;;;5003367;28;20229;-71
2023/06/22 11:26:42;;;;;;;4.50;4.10;;;29.30;99.90;;;;;;4991474;28;20528;-71
2023/06/22 11:29:08;;;;;;;6.32;3.90;;;29.40;99.90;;;;;;5003796;28;20180;-70
2023/06/22 11:31:35;;;;;;;4.40;4.00;;;29.40;99.90;;;;;;5002151;28;20231;-71
2023/06/22 11:34:01;;;;;;;5.22;4.30;;;29.40;99.90;;;;;;5006933;28;20200;-71
2023/06/22 11:36:27;;;;;;;5.22;4.07;;;30.00;99.90;;;;;;5009860;28;20259;-70
2023/06/22 11:38:52;;;;;;;5.30;4.05;;;30.30;99.90;;;;;;5009468;28;20613;-71
2023/06/22 11:41:18;;;;;;;4.82;4.15;;;29.80;99.90;;;;;;4993636;28;20189;-70
2023/06/22 11:43:44;;;;;;;4.05;3.67;;;29.50;99.90;;;;;;4990598;28;20212;-71
2023/06/22 11:46:10;;;;;;;4.63;4.22;;;29.90;99.90;;;;;;5007753;28;20252;-70
2023/06/22 11:48:36;;;;;;;5.47;4.13;;;29.60;99.90;;;;;;5008751;28;20197;-71
2023/06/22 11:51:03;;;;;;;5.20;3.97;;;29.50;99.90;;;;;;4992158;28;20206;-71
2023/06/22 11:53:29;;;;;;;6.72;4.40;;;29.70;99.90;;;;;;5006654;28;20250;-71
2023/06/22 11:55:55;;;;;;;4.38;3.88;;;29.60;99.90;;;;;;4991630;28;20205;-70
2023/06/22 11:58:21;;;;;;;5.10;4.30;;;29.70;99.90;;;;;;4990027;28;20205;-70
2023/06/22 12:00:46;;;;;;;4.93;3.95;;;29.80;99.90;;;;;;5009515;28;20212;-69
2023/06/22 12:03:12;;;;;;;9.10;4.03;;;29.90;99.90;;;;;;5005842;28;20576;-70
2023/06/22 12:05:38;;;;;;;6.90;4.00;;;30.10;99.90;;;;;;5007820;28;20172;-71
2023/06/22 12:08:04;;;;;;;5.30;3.78;;;30.20;99.90;;;;;;5004625;28;20216;-71
2023/06/22 12:10:30;;;;;;;7.45;4.13;;;30.20;99.90;;;;;;5008100;28;20694;-70
2023/06/22 12:12:57;;;;;;;5.85;4.57;;;30.20;99.90;;;;;;5013440;28;20197;-70
2023/06/22 12:15:23;;;;;;;5.35;4.85;;;29.90;99.90;;;;;;4995636;28;20260;-72
2023/06/22 12:17:48;;;;;;;5.97;5.10;;;29.70;99.90;;;;;;4995559;28;20177;-70
2023/06/22 12:20:14;;;;;;;6.93;5.00;;;29.20;99.90;;;;;;5011794;28;20188;-70
2023/06/22 12:22:41;;;;;;;5.82;5.20;;;29.30;99.90;;;;;;5011818;28;20212;-70
2023/06/22 12:25:10;;;;;;;5.80;4.55;;;29.20;99.90;;;;;;4992005;28;20702;-71
2023/06/22 12:27:36;;;;;;;5.65;4.43;;;29.10;99.90;;;;;;5010613;28;20197;-71
2023/06/22 12:30:02;;;;;;;7.10;6.22;;;29.20;99.90;;;;;;5008089;28;20569;-70
2023/06/22 12:32:28;;;;;;;4.72;3.80;;;28.90;99.90;;;;;;5009664;28;20697;-71
2023/06/22 12:34:55;;;;;;;6.88;4.25;;;29.10;99.90;;;;;;5009551;28;20208;-71
2023/06/22 12:37:20;;;;;;;7.03;5.43;;;29.30;99.90;;;;;;5007492;28;20520;-72